Time;durP1;ratioP1;P1;durP2;ratioP2;P2;SDS_P1;SDS_P2;PMS_P1;PMS_P2;Temp;Humidity;BMP_temperature;BMP_pressure;BME280_temperature;BME280_humidity;BME280_pressure;Samples;Min_cycle;Max_cycle;Signal;HPM_P1;HPM_P2
2023/11/20 00:00:14;;;;;;;8.77;1.73;;;;;;;;;;529178;28;1173;-71
2023/11/20 00:00:30;;;;;;;9.47;1.83;;;;;;;;;;528182;28;811;-71
2023/11/20 00:00:46;;;;;;;9.98;1.90;;;;;;;;;;527989;28;914;-71
2023/11/20 00:01:01;;;;;;;8.77;1.97;;;;;;;;;;526441;28;1684;-71
2023/11/20 00:01:21;;;;;;;8.60;2.03;;;;;;;;;;526324;28;2692;-71
2023/11/20 00:01:36;;;;;;;7.28;1.73;;;;;;;;;;525877;28;873;-71
2023/11/20 00:01:51;;;;;;;6.23;1.60;;;;;;;;;;525796;28;1913;-71
2023/11/20 00:02:07;;;;;;;6.07;1.67;;;;;;;;;;523462;28;1179;-71
2023/11/20 00:02:22;;;;;;;7.93;1.90;;;;;;;;;;525497;28;1250;-71
2023/11/20 00:02:39;;;;;;;9.80;2.17;;;;;;;;;;525834;28;894;-71
2023/11/20 00:02:54;;;;;;;9.30;2.03;;;;;;;;;;525027;28;2041;-71
2023/11/20 00:03:09;;;;;;;9.50;1.93;;;;;;;;;;523557;28;965;-71
2023/11/20 00:03:25;;;;;;;9.40;1.80;;;;;;;;;;521529;28;1287;-71
2023/11/20 00:03:40;;;;;;;9.10;1.70;;;;;;;;;;521266;28;1044;-71
2023/11/20 00:03:56;;;;;;;8.30;1.90;;;;;;;;;;521929;28;1338;-71
2023/11/20 00:04:11;;;;;;;7.50;1.98;;;;;;;;;;523589;28;1076;-71
2023/11/20 00:04:26;;;;;;;8.20;2.00;;;;;;;;;;523156;28;1825;-71
2023/11/20 00:04:41;;;;;;;9.67;2.10;;;;;;;;;;523135;28;1936;-71
2023/11/20 00:04:57;;;;;;;9.65;1.85;;;;;;;;;;523689;28;977;-71
2023/11/20 00:05:13;;;;;;;7.20;1.70;;;;;;;;;;522445;28;1016;-71
2023/11/20 00:05:29;;;;;;;6.45;1.70;;;;;;;;;;525797;28;878;-71
2023/11/20 00:05:44;;;;;;;7.70;1.70;;;;;;;;;;525846;28;827;-71
2023/11/20 00:05:59;;;;;;;7.93;1.93;;;;;;;;;;525786;28;1032;-71
2023/11/20 00:06:15;;;;;;;8.67;2.00;;;;;;;;;;524703;28;1771;-71
2023/11/20 00:06:31;;;;;;;9.13;1.85;;;;;;;;;;525636;28;1492;-71
2023/11/20 00:06:46;;;;;;;8.50;1.83;;;;;;;;;;525939;28;1367;-71
2023/11/20 00:07:02;;;;;;;8.00;1.80;;;;;;;;;;525866;28;964;-71
2023/11/20 00:07:17;;;;;;;9.18;1.95;;;;;;;;;;527068;28;1210;-71
2023/11/20 00:07:32;;;;;;;10.63;2.07;;;;;;;;;;528120;28;854;-71
2023/11/20 00:07:48;;;;;;;9.77;1.85;;;;;;;;;;528778;28;1110;-71
2023/11/20 00:08:03;;;;;;;8.60;1.90;;;;;;;;;;525534;28;2013;-71
2023/11/20 00:08:18;;;;;;;9.30;1.80;;;;;;;;;;522846;28;1132;-71
2023/11/20 00:08:34;;;;;;;8.50;1.77;;;;;;;;;;523772;28;902;-71
2023/11/20 00:08:49;;;;;;;6.77;1.83;;;;;;;;;;522149;28;1120;-71
2023/11/20 00:09:04;;;;;;;7.70;1.77;;;;;;;;;;521807;28;1182;-71
2023/11/20 00:09:20;;;;;;;8.07;1.73;;;;;;;;;;521481;28;1127;-71
2023/11/20 00:09:35;;;;;;;7.22;1.80;;;;;;;;;;521728;28;839;-71
2023/11/20 00:09:50;;;;;;;7.73;1.80;;;;;;;;;;521588;28;2401;-71
2023/11/20 00:10:06;;;;;;;7.00;1.67;;;;;;;;;;521644;28;977;-71
2023/11/20 00:10:22;;;;;;;6.78;1.70;;;;;;;;;;523234;28;1381;-71
2023/11/20 00:10:38;;;;;;;8.47;1.90;;;;;;;;;;523728;28;1397;-74
2023/11/20 00:10:54;;;;;;;9.10;1.80;;;;;;;;;;524886;28;1203;-74
2023/11/20 00:11:09;;;;;;;7.70;1.70;;;;;;;;;;522901;28;1819;-74
2023/11/20 00:11:27;;;;;;;8.07;1.80;;;;;;;;;;523136;28;1918;-74
2023/11/20 00:11:42;;;;;;;9.20;1.80;;;;;;;;;;520041;28;1401;-74
2023/11/20 00:11:57;;;;;;;7.90;1.80;;;;;;;;;;521550;28;871;-74
2023/11/20 00:12:13;;;;;;;6.93;1.80;;;;;;;;;;522171;28;1076;-74
2023/11/20 00:12:28;;;;;;;6.37;1.77;;;;;;;;;;523620;28;1009;-74
2023/11/20 00:12:43;;;;;;;7.33;1.70;;;;;;;;;;524884;28;1157;-74
2023/11/20 00:12:58;;;;;;;8.83;1.93;;;;;;;;;;524969;28;2120;-76
2023/11/20 00:13:14;;;;;;;9.10;2.00;;;;;;;;;;524330;28;1071;-74
2023/11/20 00:13:29;;;;;;;10.90;2.10;;;;;;;;;;525861;28;1052;-75
2023/11/20 00:13:45;;;;;;;10.87;2.20;;;;;;;;;;527645;28;775;-74
2023/11/20 00:14:00;;;;;;;8.52;2.05;;;;;;;;;;526184;28;1178;-74
2023/11/20 00:14:15;;;;;;;7.90;1.90;;;;;;;;;;522322;28;1416;-74
2023/11/20 00:14:31;;;;;;;8.18;2.00;;;;;;;;;;525760;28;1664;-74
2023/11/20 00:14:46;;;;;;;9.70;2.13;;;;;;;;;;524346;28;2032;-75
2023/11/20 00:15:02;;;;;;;9.63;1.90;;;;;;;;;;523521;28;822;-74
2023/11/20 00:15:17;;;;;;;9.57;1.93;;;;;;;;;;522744;28;1370;-74
2023/11/20 00:15:34;;;;;;;9.52;1.90;;;;;;;;;;523828;28;866;-75
2023/11/20 00:15:49;;;;;;;8.60;1.83;;;;;;;;;;524147;28;875;-74
2023/11/20 00:16:05;;;;;;;7.87;1.90;;;;;;;;;;523598;28;1285;-74
2023/11/20 00:16:20;;;;;;;8.43;1.90;;;;;;;;;;521155;28;1785;-74
2023/11/20 00:16:35;;;;;;;8.63;2.00;;;;;;;;;;521497;28;902;-74
2023/11/20 00:16:52;;;;;;;8.70;1.87;;;;;;;;;;523499;28;1163;-74
2023/11/20 00:17:07;;;;;;;7.53;1.70;;;;;;;;;;520020;28;1409;-74
2023/11/20 00:17:22;;;;;;;7.53;1.80;;;;;;;;;;521477;28;1029;-74
2023/11/20 00:17:37;;;;;;;9.10;2.00;;;;;;;;;;519599;28;835;-75
2023/11/20 00:17:53;;;;;;;8.75;2.13;;;;;;;;;;520272;28;1706;-74
2023/11/20 00:18:08;;;;;;;7.57;1.80;;;;;;;;;;523778;28;2046;-75
2023/11/20 00:18:24;;;;;;;7.57;1.88;;;;;;;;;;527272;28;775;-74
2023/11/20 00:18:39;;;;;;;9.10;2.20;;;;;;;;;;527524;28;802;-74
2023/11/20 00:18:54;;;;;;;9.90;2.30;;;;;;;;;;527129;28;896;-74
2023/11/20 00:19:12;;;;;;;8.32;2.03;;;;;;;;;;525864;28;1226;-75
2023/11/20 00:19:27;;;;;;;7.68;1.80;;;;;;;;;;528060;28;862;-74
2023/11/20 00:19:45;;;;;;;9.23;1.97;;;;;;;;;;528257;28;1997;-74
2023/11/20 00:20:00;;;;;;;8.15;1.70;;;;;;;;;;525235;28;1536;-74
2023/11/20 00:20:15;;;;;;;7.73;1.70;;;;;;;;;;525640;28;1127;-74
2023/11/20 00:20:31;;;;;;;7.93;1.77;;;;;;;;;;525849;28;926;-74
2023/11/20 00:20:46;;;;;;;6.90;1.80;;;;;;;;;;525608;28;1098;-75
2023/11/20 00:21:02;;;;;;;6.45;1.90;;;;;;;;;;523506;28;1151;-75
2023/11/20 00:21:18;;;;;;;6.57;1.83;;;;;;;;;;523506;28;1844;-75
2023/11/20 00:21:33;;;;;;;6.83;1.80;;;;;;;;;;523759;28;814;-74
2023/11/20 00:21:49;;;;;;;7.45;1.80;;;;;;;;;;523782;28;1973;-74
2023/11/20 00:22:04;;;;;;;8.00;1.87;;;;;;;;;;525681;28;803;-74
2023/11/20 00:22:20;;;;;;;7.90;1.70;;;;;;;;;;525824;28;1067;-74
2023/11/20 00:22:36;;;;;;;7.65;1.80;;;;;;;;;;525796;28;1380;-74
2023/11/20 00:22:51;;;;;;;7.75;1.90;;;;;;;;;;528421;28;898;-74
2023/11/20 00:23:07;;;;;;;7.78;1.98;;;;;;;;;;526302;28;1969;-75
2023/11/20 00:23:22;;;;;;;7.87;2.00;;;;;;;;;;527726;28;1115;-75
2023/11/20 00:23:38;;;;;;;8.05;1.60;;;;;;;;;;527602;28;1616;-74
2023/11/20 00:23:53;;;;;;;7.53;1.53;;;;;;;;;;525201;28;1752;-74
2023/11/20 00:24:09;;;;;;;7.93;1.90;;;;;;;;;;525400;28;948;-75
2023/11/20 00:24:25;;;;;;;8.48;1.90;;;;;;;;;;525598;28;929;-74
2023/11/20 00:24:41;;;;;;;8.35;1.70;;;;;;;;;;524506;28;1989;-74
2023/11/20 00:24:56;;;;;;;9.33;1.80;;;;;;;;;;525540;28;925;-74
2023/11/20 00:25:11;;;;;;;7.83;1.80;;;;;;;;;;525507;28;1075;-75
2023/11/20 00:25:27;;;;;;;6.75;1.70;;;;;;;;;;525811;28;878;-75
2023/11/20 00:25:42;;;;;;;7.60;1.93;;;;;;;;;;526121;28;874;-74
2023/11/20 00:25:58;;;;;;;7.20;2.07;;;;;;;;;;527976;28;1020;-75
2023/11/20 00:26:14;;;;;;;7.25;2.00;;;;;;;;;;527948;28;913;-74
2023/11/20 00:26:29;;;;;;;7.50;1.90;;;;;;;;;;527322;28;2203;-74
2023/11/20 00:26:44;;;;;;;8.65;1.90;;;;;;;;;;525883;28;802;-75
2023/11/20 00:27:00;;;;;;;7.83;1.70;;;;;;;;;;525594;28;819;-74
2023/11/20 00:27:15;;;;;;;7.47;1.50;;;;;;;;;;526097;28;1572;-75
2023/11/20 00:27:30;;;;;;;8.53;1.53;;;;;;;;;;526909;28;1786;-75
2023/11/20 00:27:46;;;;;;;8.07;1.70;;;;;;;;;;524994;28;1767;-75
2023/11/20 00:28:01;;;;;;;6.60;1.63;;;;;;;;;;523719;28;905;-75
2023/11/20 00:28:16;;;;;;;7.20;1.70;;;;;;;;;;524565;28;2204;-74
2023/11/20 00:28:31;;;;;;;9.63;2.00;;;;;;;;;;525804;28;897;-74
2023/11/20 00:28:47;;;;;;;9.65;2.00;;;;;;;;;;525320;28;930;-74
2023/11/20 00:29:04;;;;;;;7.43;1.90;;;;;;;;;;527523;28;1230;-74
2023/11/20 00:29:19;;;;;;;7.75;1.83;;;;;;;;;;524010;28;1360;-73
2023/11/20 00:29:34;;;;;;;7.73;1.80;;;;;;;;;;524130;28;811;-74
2023/11/20 00:29:50;;;;;;;8.48;1.92;;;;;;;;;;525819;28;2057;-74
2023/11/20 00:30:06;;;;;;;8.10;1.83;;;;;;;;;;525713;28;759;-74
2023/11/20 00:30:22;;;;;;;7.68;1.75;;;;;;;;;;523495;28;1317;-75
2023/11/20 00:30:37;;;;;;;8.15;1.92;;;;;;;;;;523624;28;981;-74
2023/11/20 00:30:53;;;;;;;6.53;1.90;;;;;;;;;;523432;28;910;-74
2023/11/20 00:31:17;;;;;;;6.27;1.73;;;;;;;;;;523760;28;1184;-74
2023/11/20 00:31:34;;;;;;;7.40;1.70;;;;;;;;;;523488;28;1975;-74
2023/11/20 00:31:49;;;;;;;7.68;1.67;;;;;;;;;;523434;28;1123;-74
2023/11/20 00:32:05;;;;;;;7.17;1.73;;;;;;;;;;523603;28;819;-74
2023/11/20 00:32:21;;;;;;;7.47;2.03;;;;;;;;;;525326;28;1162;-74
2023/11/20 00:32:36;;;;;;;8.43;2.00;;;;;;;;;;525686;28;1296;-74
2023/11/20 00:32:51;;;;;;;8.30;1.87;;;;;;;;;;525683;28;1207;-74
2023/11/20 00:33:08;;;;;;;7.78;1.70;;;;;;;;;;524731;28;2002;-75
2023/11/20 00:33:23;;;;;;;7.22;1.80;;;;;;;;;;523666;28;973;-74
2023/11/20 00:33:39;;;;;;;7.77;1.80;;;;;;;;;;523311;28;1945;-74
2023/11/20 00:33:54;;;;;;;8.37;1.80;;;;;;;;;;525014;28;1033;-74
2023/11/20 00:34:09;;;;;;;8.10;1.80;;;;;;;;;;523477;28;1320;-74
2023/11/20 00:34:24;;;;;;;7.72;1.75;;;;;;;;;;523939;28;1211;-74
2023/11/20 00:34:40;;;;;;;6.83;1.70;;;;;;;;;;525769;28;893;-75
2023/11/20 00:34:55;;;;;;;7.43;1.70;;;;;;;;;;525400;28;976;-74
2023/11/20 00:35:10;;;;;;;7.38;1.67;;;;;;;;;;525426;28;1020;-74
2023/11/20 00:35:26;;;;;;;7.60;1.73;;;;;;;;;;525740;28;937;-74
2023/11/20 00:35:41;;;;;;;7.87;1.70;;;;;;;;;;525816;28;794;-74
2023/11/20 00:35:57;;;;;;;7.60;1.80;;;;;;;;;;523719;28;1186;-75
2023/11/20 00:36:12;;;;;;;8.38;2.00;;;;;;;;;;525427;28;1239;-74
2023/11/20 00:36:27;;;;;;;8.32;1.92;;;;;;;;;;523722;28;2070;-74
2023/11/20 00:36:43;;;;;;;7.87;2.00;;;;;;;;;;523558;28;814;-74
2023/11/20 00:36:59;;;;;;;6.80;1.80;;;;;;;;;;523666;28;806;-74
2023/11/20 00:37:16;;;;;;;6.68;1.85;;;;;;;;;;522188;28;1546;-74
2023/11/20 00:37:31;;;;;;;7.40;1.77;;;;;;;;;;523721;28;862;-75
2023/11/20 00:37:47;;;;;;;7.93;1.85;;;;;;;;;;523728;28;993;-74
2023/11/20 00:38:03;;;;;;;9.03;1.90;;;;;;;;;;524094;28;2080;-75
2023/11/20 00:38:18;;;;;;;8.13;1.90;;;;;;;;;;526586;28;1114;-74
2023/11/20 00:38:33;;;;;;;6.65;2.10;;;;;;;;;;525057;28;1047;-75
2023/11/20 00:38:49;;;;;;;6.60;1.83;;;;;;;;;;523416;28;1075;-74
2023/11/20 00:39:04;;;;;;;7.77;1.73;;;;;;;;;;524204;28;1075;-75
2023/11/20 00:39:19;;;;;;;7.75;1.70;;;;;;;;;;523948;28;1169;-74
2023/11/20 00:39:35;;;;;;;7.50;1.70;;;;;;;;;;523766;28;953;-75
2023/11/20 00:39:50;;;;;;;7.53;1.77;;;;;;;;;;520838;28;2852;-74
2023/11/20 00:40:06;;;;;;;8.23;1.80;;;;;;;;;;519547;28;878;-75
2023/11/20 00:40:22;;;;;;;7.63;1.75;;;;;;;;;;523415;28;1124;-74
2023/11/20 00:40:37;;;;;;;7.77;1.60;;;;;;;;;;526112;28;866;-74
2023/11/20 00:40:52;;;;;;;7.90;1.70;;;;;;;;;;527734;28;900;-74
2023/11/20 00:41:09;;;;;;;6.97;1.83;;;;;;;;;;527724;28;1173;-75
2023/11/20 00:41:25;;;;;;;7.43;1.77;;;;;;;;;;525677;28;937;-74
2023/11/20 00:41:40;;;;;;;7.27;1.70;;;;;;;;;;524116;28;1902;-74
2023/11/20 00:41:56;;;;;;;7.88;2.00;;;;;;;;;;525484;28;1913;-74
2023/11/20 00:42:12;;;;;;;8.27;1.95;;;;;;;;;;526226;28;964;-74
2023/11/20 00:42:27;;;;;;;8.13;1.70;;;;;;;;;;527879;28;945;-75
2023/11/20 00:42:42;;;;;;;6.27;1.57;;;;;;;;;;528032;28;917;-74
2023/11/20 00:42:57;;;;;;;6.65;1.65;;;;;;;;;;526545;28;941;-74
2023/11/20 00:43:13;;;;;;;8.23;1.87;;;;;;;;;;526461;28;1989;-74
2023/11/20 00:43:28;;;;;;;8.47;1.93;;;;;;;;;;525718;28;1574;-74
2023/11/20 00:43:43;;;;;;;8.80;1.77;;;;;;;;;;525297;28;861;-74
2023/11/20 00:43:59;;;;;;;7.80;1.70;;;;;;;;;;524946;28;870;-74
2023/11/20 00:44:14;;;;;;;7.47;1.73;;;;;;;;;;525676;28;1051;-74
2023/11/20 00:44:30;;;;;;;7.50;1.70;;;;;;;;;;525772;28;901;-75
2023/11/20 00:44:45;;;;;;;6.73;1.63;;;;;;;;;;525974;28;874;-75
2023/11/20 00:45:00;;;;;;;8.07;1.70;;;;;;;;;;523469;28;2027;-74
2023/11/20 00:45:15;;;;;;;8.27;1.73;;;;;;;;;;525942;28;1072;-74
2023/11/20 00:45:31;;;;;;;7.90;1.90;;;;;;;;;;530109;28;996;-74
2023/11/20 00:45:46;;;;;;;8.60;1.90;;;;;;;;;;529915;28;881;-74
2023/11/20 00:46:02;;;;;;;8.88;1.83;;;;;;;;;;529101;28;1306;-74
2023/11/20 00:46:17;;;;;;;7.93;1.70;;;;;;;;;;526910;28;1374;-75
2023/11/20 00:46:33;;;;;;;8.60;1.70;;;;;;;;;;525794;28;2353;-74
2023/11/20 00:46:48;;;;;;;9.43;1.80;;;;;;;;;;524521;28;1839;-74
2023/11/20 00:47:03;;;;;;;8.40;1.60;;;;;;;;;;523862;28;1692;-74
2023/11/20 00:47:19;;;;;;;7.97;1.67;;;;;;;;;;524368;28;1826;-73
2023/11/20 00:47:34;;;;;;;7.93;1.80;;;;;;;;;;524687;28;822;-75
2023/11/20 00:47:49;;;;;;;7.57;1.73;;;;;;;;;;525870;28;849;-74
2023/11/20 00:48:05;;;;;;;8.00;1.57;;;;;;;;;;526185;28;953;-74
2023/11/20 00:48:20;;;;;;;7.97;1.60;;;;;;;;;;525765;28;1174;-75
2023/11/20 00:48:35;;;;;;;8.00;1.67;;;;;;;;;;525847;28;989;-74
2023/11/20 00:48:51;;;;;;;9.90;1.90;;;;;;;;;;526015;28;811;-74
2023/11/20 00:49:07;;;;;;;9.13;1.77;;;;;;;;;;525807;28;1593;-74
2023/11/20 00:49:22;;;;;;;7.53;1.58;;;;;;;;;;523910;28;948;-75
2023/11/20 00:49:38;;;;;;;7.87;1.67;;;;;;;;;;523899;28;1048;-74
2023/11/20 00:49:53;;;;;;;7.78;1.70;;;;;;;;;;523701;28;857;-74
2023/11/20 00:50:09;;;;;;;8.63;1.80;;;;;;;;;;523986;28;1157;-74
2023/11/20 00:50:24;;;;;;;9.20;1.80;;;;;;;;;;525974;28;834;-75
2023/11/20 00:50:40;;;;;;;8.93;1.80;;;;;;;;;;525912;28;794;-74
2023/11/20 00:50:56;;;;;;;8.25;1.80;;;;;;;;;;526360;28;889;-74
2023/11/20 00:51:13;;;;;;;6.85;1.50;;;;;;;;;;526486;28;2052;-74
2023/11/20 00:51:32;;;;;;;8.65;1.60;;;;;;;;;;526018;28;908;-74
2023/11/20 00:51:47;;;;;;;9.15;1.70;;;;;;;;;;525427;28;1222;-74
2023/11/20 00:52:02;;;;;;;9.30;1.67;;;;;;;;;;525685;28;1225;-74
2023/11/20 00:52:18;;;;;;;7.23;1.53;;;;;;;;;;525802;28;964;-74
2023/11/20 00:52:35;;;;;;;6.73;1.50;;;;;;;;;;523706;28;1178;-74
2023/11/20 00:52:50;;;;;;;7.55;1.67;;;;;;;;;;523867;28;933;-75
2023/11/20 00:53:05;;;;;;;7.70;1.70;;;;;;;;;;523745;28;1019;-75
2023/11/20 00:53:21;;;;;;;8.33;1.60;;;;;;;;;;523704;28;1072;-74
2023/11/20 00:53:36;;;;;;;9.37;1.70;;;;;;;;;;523562;28;857;-74
2023/11/20 00:53:52;;;;;;;10.02;1.90;;;;;;;;;;523982;28;905;-74
2023/11/20 00:54:08;;;;;;;9.60;2.00;;;;;;;;;;525655;28;779;-74
2023/11/20 00:54:23;;;;;;;8.65;1.90;;;;;;;;;;524430;28;1153;-74
2023/11/20 00:54:39;;;;;;;8.60;1.83;;;;;;;;;;526029;28;870;-74
2023/11/20 00:54:54;;;;;;;7.93;1.70;;;;;;;;;;526157;28;977;-74
2023/11/20 00:55:10;;;;;;;7.70;1.80;;;;;;;;;;523704;28;1088;-75
2023/11/20 00:55:25;;;;;;;8.87;2.07;;;;;;;;;;525838;28;901;-74
2023/11/20 00:55:40;;;;;;;8.20;1.85;;;;;;;;;;525888;28;933;-74
2023/11/20 00:55:56;;;;;;;9.53;1.87;;;;;;;;;;523775;28;1138;-74
2023/11/20 00:56:11;;;;;;;9.93;1.93;;;;;;;;;;523449;28;1072;-75
2023/11/20 00:56:28;;;;;;;8.55;1.92;;;;;;;;;;523764;28;1044;-74
2023/11/20 00:56:43;;;;;;;8.10;1.80;;;;;;;;;;521669;28;1388;-74
2023/11/20 00:56:59;;;;;;;7.60;1.50;;;;;;;;;;522022;28;815;-74
2023/11/20 00:57:14;;;;;;;7.83;1.77;;;;;;;;;;523620;28;1084;-74
2023/11/20 00:57:29;;;;;;;8.32;1.88;;;;;;;;;;523749;28;803;-74
2023/11/20 00:57:44;;;;;;;7.47;1.70;;;;;;;;;;524208;28;885;-74
2023/11/20 00:58:00;;;;;;;6.70;1.60;;;;;;;;;;525953;28;921;-74
2023/11/20 00:58:15;;;;;;;7.53;1.70;;;;;;;;;;526714;28;1150;-74
2023/11/20 00:58:30;;;;;;;7.53;1.90;;;;;;;;;;528204;28;909;-74
2023/11/20 00:58:46;;;;;;;7.13;1.73;;;;;;;;;;528505;28;814;-74
2023/11/20 00:59:01;;;;;;;8.00;1.60;;;;;;;;;;528242;28;918;-74
2023/11/20 00:59:16;;;;;;;7.70;1.60;;;;;;;;;;529116;28;1058;-74
2023/11/20 00:59:32;;;;;;;7.27;1.60;;;;;;;;;;527994;28;1164;-74
2023/11/20 00:59:49;;;;;;;7.67;1.60;;;;;;;;;;527942;28;779;-74
2023/11/20 01:00:06;;;;;;;7.78;1.65;;;;;;;;;;527560;28;877;-75
2023/11/20 01:00:21;;;;;;;8.35;1.77;;;;;;;;;;524628;28;1695;-76
2023/11/20 01:00:37;;;;;;;7.13;1.77;;;;;;;;;;523375;28;771;-75
2023/11/20 01:00:54;;;;;;;8.00;1.65;;;;;;;;;;523724;28;874;-74
2023/11/20 01:01:09;;;;;;;8.18;1.58;;;;;;;;;;523635;28;1083;-74
2023/11/20 01:01:24;;;;;;;6.60;1.60;;;;;;;;;;523850;28;1145;-74
2023/11/20 01:01:40;;;;;;;7.13;1.90;;;;;;;;;;523713;28;985;-75
2023/11/20 01:01:55;;;;;;;7.17;1.90;;;;;;;;;;524321;28;1910;-74
2023/11/20 01:02:10;;;;;;;6.10;1.70;;;;;;;;;;523832;28;1575;-75
2023/11/20 01:02:26;;;;;;;6.50;1.83;;;;;;;;;;525491;28;1331;-75
2023/11/20 01:02:41;;;;;;;7.03;1.80;;;;;;;;;;525750;28;1001;-75
2023/11/20 01:02:57;;;;;;;6.40;1.60;;;;;;;;;;525993;28;822;-74
2023/11/20 01:03:12;;;;;;;7.20;1.67;;;;;;;;;;525720;28;1141;-74
2023/11/20 01:03:28;;;;;;;7.97;1.60;;;;;;;;;;523737;28;1207;-75
2023/11/20 01:03:43;;;;;;;7.97;1.67;;;;;;;;;;523297;28;841;-74
2023/11/20 01:03:58;;;;;;;8.20;1.67;;;;;;;;;;523812;28;803;-74
2023/11/20 01:04:14;;;;;;;7.57;1.70;;;;;;;;;;523620;28;1052;-74
2023/11/20 01:04:29;;;;;;;6.47;1.70;;;;;;;;;;520973;28;1853;-74
2023/11/20 01:04:44;;;;;;;7.78;1.70;;;;;;;;;;520174;28;1139;-75
2023/11/20 01:05:00;;;;;;;7.77;1.70;;;;;;;;;;521354;28;1134;-74
2023/11/20 01:05:16;;;;;;;6.95;1.67;;;;;;;;;;523281;28;1190;-74
2023/11/20 01:05:31;;;;;;;6.47;1.60;;;;;;;;;;524648;28;1079;-75
2023/11/20 01:05:46;;;;;;;6.10;1.40;;;;;;;;;;524152;28;910;-74
2023/11/20 01:06:04;;;;;;;7.03;1.50;;;;;;;;;;524622;28;1167;-74
2023/11/20 01:06:19;;;;;;;9.13;1.70;;;;;;;;;;526383;28;1091;-74
2023/11/20 01:06:41;;;;;;;8.00;1.67;;;;;;;;;;526953;28;795;-74
2023/11/20 01:06:56;;;;;;;6.00;1.60;;;;;;;;;;526119;28;972;-74
2023/11/20 01:07:12;;;;;;;6.13;1.57;;;;;;;;;;526835;28;1191;-74
2023/11/20 01:07:27;;;;;;;7.50;1.80;;;;;;;;;;528563;28;997;-74
2023/11/20 01:07:42;;;;;;;8.33;1.83;;;;;;;;;;528496;28;882;-74
2023/11/20 01:07:58;;;;;;;8.70;1.83;;;;;;;;;;528478;28;862;-74
2023/11/20 01:08:13;;;;;;;7.28;1.60;;;;;;;;;;525863;28;1636;-74
2023/11/20 01:08:28;;;;;;;5.87;1.33;;;;;;;;;;527265;28;1198;-74
2023/11/20 01:08:43;;;;;;;6.60;1.53;;;;;;;;;;527657;28;810;-74
2023/11/20 01:08:59;;;;;;;7.37;1.80;;;;;;;;;;527758;28;1285;-74
2023/11/20 01:09:14;;;;;;;7.03;1.65;;;;;;;;;;528401;27;937;-74
2023/11/20 01:09:29;;;;;;;5.37;1.37;;;;;;;;;;528448;28;779;-74
2023/11/20 01:09:45;;;;;;;6.10;1.40;;;;;;;;;;528590;28;854;-74
2023/11/20 01:10:00;;;;;;;7.03;1.50;;;;;;;;;;528466;28;997;-75
2023/11/20 01:10:15;;;;;;;6.35;1.60;;;;;;;;;;528692;27;1047;-74
2023/11/20 01:10:30;;;;;;;6.57;1.70;;;;;;;;;;526208;28;1168;-74
2023/11/20 01:10:46;;;;;;;6.60;1.60;;;;;;;;;;526178;28;1013;-75
2023/11/20 01:11:10;;;;;;;6.80;1.37;;;;;;;;;;526251;28;795;-74
2023/11/20 01:11:26;;;;;;;7.07;1.50;;;;;;;;;;524037;28;1439;-75
2023/11/20 01:11:42;;;;;;;6.27;1.70;;;;;;;;;;524156;28;807;-75
2023/11/20 01:11:58;;;;;;;6.88;1.70;;;;;;;;;;524117;28;847;-74
2023/11/20 01:12:13;;;;;;;6.73;1.67;;;;;;;;;;524695;28;1059;-74
2023/11/20 01:12:29;;;;;;;6.88;1.70;;;;;;;;;;525824;28;1195;-74
2023/11/20 01:12:45;;;;;;;8.20;1.80;;;;;;;;;;523903;28;858;-74
2023/11/20 01:13:00;;;;;;;6.97;1.50;;;;;;;;;;524177;28;835;-74
2023/11/20 01:13:15;;;;;;;6.77;1.50;;;;;;;;;;523223;28;1135;-74
2023/11/20 01:13:31;;;;;;;6.90;1.60;;;;;;;;;;522043;28;1351;-75
2023/11/20 01:13:46;;;;;;;5.67;1.47;;;;;;;;;;519429;28;1185;-74
2023/11/20 01:14:01;;;;;;;5.22;1.50;;;;;;;;;;520088;28;871;-75
2023/11/20 01:14:17;;;;;;;6.60;1.63;;;;;;;;;;520531;28;1387;-74
2023/11/20 01:14:32;;;;;;;7.10;1.70;;;;;;;;;;522046;28;1813;-74
2023/11/20 01:14:47;;;;;;;5.55;1.52;;;;;;;;;;521627;28;1152;-74
2023/11/20 01:15:04;;;;;;;5.57;1.50;;;;;;;;;;521397;28;840;-74
2023/11/20 01:15:19;;;;;;;6.18;1.67;;;;;;;;;;521952;28;1126;-74
2023/11/20 01:15:35;;;;;;;7.13;1.53;;;;;;;;;;522340;28;1116;-75
2023/11/20 01:15:50;;;;;;;8.53;1.50;;;;;;;;;;526181;28;829;-75
2023/11/20 01:16:06;;;;;;;7.70;1.40;;;;;;;;;;526280;28;944;-75
2023/11/20 01:16:21;;;;;;;6.20;1.30;;;;;;;;;;523927;28;1305;-74
2023/11/20 01:16:36;;;;;;;6.00;1.37;;;;;;;;;;524647;28;1166;-74
2023/11/20 01:16:52;;;;;;;6.27;1.47;;;;;;;;;;526133;28;953;-74
2023/11/20 01:17:07;;;;;;;6.90;1.50;;;;;;;;;;525952;28;850;-73
2023/11/20 01:17:22;;;;;;;8.67;1.73;;;;;;;;;;526151;28;1134;-75
2023/11/20 01:17:38;;;;;;;8.27;1.77;;;;;;;;;;526285;28;1227;-74
2023/11/20 01:17:54;;;;;;;6.88;1.58;;;;;;;;;;525623;28;940;-74
2023/11/20 01:18:09;;;;;;;6.32;1.58;;;;;;;;;;522317;28;1160;-74
2023/11/20 01:18:24;;;;;;;5.80;1.60;;;;;;;;;;526337;28;763;-74
2023/11/20 01:18:40;;;;;;;5.30;1.60;;;;;;;;;;523917;28;818;-75
2023/11/20 01:18:55;;;;;;;5.17;1.40;;;;;;;;;;521972;28;1043;-74
2023/11/20 01:19:11;;;;;;;5.95;1.50;;;;;;;;;;522085;28;1107;-75
2023/11/20 01:19:26;;;;;;;6.55;1.70;;;;;;;;;;521923;28;1254;-74
2023/11/20 01:19:41;;;;;;;7.17;1.70;;;;;;;;;;522066;28;906;-74
2023/11/20 01:19:56;;;;;;;8.57;1.77;;;;;;;;;;522218;28;939;-75
2023/11/20 01:20:12;;;;;;;8.87;1.50;;;;;;;;;;521851;28;1403;-74
2023/11/20 01:20:27;;;;;;;7.30;1.45;;;;;;;;;;522109;28;1083;-75
2023/11/20 01:20:45;;;;;;;6.53;1.67;;;;;;;;;;521263;28;1759;-75
2023/11/20 01:21:01;;;;;;;6.65;1.70;;;;;;;;;;523944;28;1026;-75
2023/11/20 01:21:16;;;;;;;7.05;1.60;;;;;;;;;;523907;28;1100;-74
2023/11/20 01:21:32;;;;;;;7.90;1.73;;;;;;;;;;523604;28;1108;-74
2023/11/20 01:21:47;;;;;;;7.97;1.90;;;;;;;;;;524693;28;1958;-74
2023/11/20 01:22:03;;;;;;;7.47;1.80;;;;;;;;;;526320;28;1330;-74
2023/11/20 01:22:18;;;;;;;7.18;1.60;;;;;;;;;;527590;28;1032;-75
2023/11/20 01:22:34;;;;;;;7.83;1.73;;;;;;;;;;528247;28;818;-75
2023/11/20 01:22:49;;;;;;;8.18;1.88;;;;;;;;;;526118;28;1325;-74
2023/11/20 01:23:04;;;;;;;8.23;1.73;;;;;;;;;;526090;28;925;-74
2023/11/20 01:23:20;;;;;;;6.97;1.50;;;;;;;;;;523798;28;1051;-75
2023/11/20 01:23:35;;;;;;;7.28;1.63;;;;;;;;;;524057;28;1607;-73
2023/11/20 01:23:50;;;;;;;7.77;1.80;;;;;;;;;;523835;28;910;-75
2023/11/20 01:24:06;;;;;;;7.30;1.73;;;;;;;;;;524103;28;803;-74
2023/11/20 01:24:21;;;;;;;7.18;1.45;;;;;;;;;;524023;28;1087;-74
2023/11/20 01:24:37;;;;;;;6.87;1.50;;;;;;;;;;522184;28;1430;-75
2023/11/20 01:24:52;;;;;;;6.57;1.63;;;;;;;;;;524190;28;799;-74
2023/11/20 01:25:08;;;;;;;6.97;1.70;;;;;;;;;;524200;28;863;-74
2023/11/20 01:25:24;;;;;;;6.95;1.80;;;;;;;;;;526161;28;842;-74
2023/11/20 01:25:39;;;;;;;7.60;1.80;;;;;;;;;;524048;28;1285;-74
2023/11/20 01:25:55;;;;;;;8.50;1.90;;;;;;;;;;524197;28;948;-74
2023/11/20 01:26:10;;;;;;;6.80;1.80;;;;;;;;;;523854;28;1004;-74
2023/11/20 01:26:26;;;;;;;7.53;1.80;;;;;;;;;;524837;28;1083;-74
2023/11/20 01:26:42;;;;;;;8.40;1.80;;;;;;;;;;525054;28;1188;-74
2023/11/20 01:26:57;;;;;;;7.18;1.73;;;;;;;;;;521880;28;1355;-74
2023/11/20 01:27:12;;;;;;;6.87;1.70;;;;;;;;;;522140;28;1300;-75
2023/11/20 01:27:28;;;;;;;7.27;1.80;;;;;;;;;;524428;28;830;-75
2023/11/20 01:27:43;;;;;;;6.28;1.67;;;;;;;;;;526156;28;1044;-74
2023/11/20 01:27:59;;;;;;;5.87;1.70;;;;;;;;;;526225;28;933;-74
2023/11/20 01:28:14;;;;;;;7.60;1.80;;;;;;;;;;524667;28;1196;-74
2023/11/20 01:28:29;;;;;;;8.37;1.80;;;;;;;;;;526289;28;973;-74
2023/11/20 01:28:45;;;;;;;7.37;1.80;;;;;;;;;;526054;28;1015;-74
2023/11/20 01:29:00;;;;;;;6.20;1.55;;;;;;;;;;528045;28;914;-74
2023/11/20 01:29:15;;;;;;;6.67;1.40;;;;;;;;;;527129;28;1062;-74
2023/11/20 01:29:31;;;;;;;7.17;1.47;;;;;;;;;;526031;28;794;-74
2023/11/20 01:29:46;;;;;;;7.18;1.60;;;;;;;;;;526318;28;945;-75
2023/11/20 01:30:01;;;;;;;7.20;1.60;;;;;;;;;;524268;28;847;-74
2023/11/20 01:30:17;;;;;;;8.23;1.70;;;;;;;;;;526116;28;1094;-74
2023/11/20 01:30:32;;;;;;;8.27;1.67;;;;;;;;;;524818;28;1737;-74
2023/11/20 01:30:47;;;;;;;6.70;1.53;;;;;;;;;;524133;28;1416;-74
2023/11/20 01:31:03;;;;;;;6.73;1.70;;;;;;;;;;525614;28;807;-74
2023/11/20 01:31:18;;;;;;;7.78;1.90;;;;;;;;;;522262;28;1418;-74
2023/11/20 01:31:33;;;;;;;6.77;1.87;;;;;;;;;;523148;28;1110;-74
2023/11/20 01:31:49;;;;;;;6.43;1.70;;;;;;;;;;523747;28;1174;-73
2023/11/20 01:32:04;;;;;;;6.28;1.50;;;;;;;;;;524154;28;831;-74
2023/11/20 01:32:19;;;;;;;5.93;1.40;;;;;;;;;;524027;28;1028;-74
2023/11/20 01:32:35;;;;;;;6.90;1.70;;;;;;;;;;523993;28;811;-74
2023/11/20 01:32:51;;;;;;;8.32;1.90;;;;;;;;;;521951;28;1211;-74
2023/11/20 01:33:07;;;;;;;7.50;1.60;;;;;;;;;;522000;28;1045;-74
2023/11/20 01:33:22;;;;;;;5.85;1.42;;;;;;;;;;525988;28;985;-75
2023/11/20 01:33:37;;;;;;;6.63;1.50;;;;;;;;;;525716;28;873;-74
2023/11/20 01:33:53;;;;;;;6.27;1.40;;;;;;;;;;526143;28;885;-74
2023/11/20 01:34:11;;;;;;;5.78;1.40;;;;;;;;;;526123;28;1000;-74
2023/11/20 01:34:26;;;;;;;5.35;1.35;;;;;;;;;;526096;28;918;-74
2023/11/20 01:34:42;;;;;;;6.70;1.47;;;;;;;;;;524874;28;1310;-74
2023/11/20 01:34:58;;;;;;;7.25;1.67;;;;;;;;;;524848;28;1392;-74
2023/11/20 01:35:13;;;;;;;6.13;1.60;;;;;;;;;;523024;28;1378;-74
2023/11/20 01:35:28;;;;;;;6.40;1.70;;;;;;;;;;523847;28;803;-74
2023/11/20 01:35:45;;;;;;;7.27;1.67;;;;;;;;;;520925;28;1919;-74
2023/11/20 01:36:01;;;;;;;6.22;1.40;;;;;;;;;;522032;28;925;-74
2023/11/20 01:36:16;;;;;;;6.63;1.67;;;;;;;;;;521920;28;803;-74
2023/11/20 01:36:31;;;;;;;6.70;1.70;;;;;;;;;;522575;28;890;-74
2023/11/20 01:36:48;;;;;;;7.10;1.60;;;;;;;;;;524078;28;994;-74
2023/11/20 01:37:03;;;;;;;7.22;1.52;;;;;;;;;;523963;28;866;-74
2023/11/20 01:37:18;;;;;;;7.80;1.50;;;;;;;;;;523897;28;1152;-74